createdAt,value
2018-02-13T00:00:41.806Z,1021.56
2018-02-13T00:01:41.815Z,1021.57
2018-02-13T00:02:41.814Z,1021.56
2018-02-13T00:03:41.815Z,1021.57
2018-02-13T00:04:41.859Z,1021.57
2018-02-13T00:05:41.813Z,1021.59
2018-02-13T00:06:41.803Z,1021.57
2018-02-13T00:07:41.816Z,1021.6
2018-02-13T00:08:41.848Z,1021.6
2018-02-13T00:09:41.824Z,1021.55
2018-02-13T00:10:42.593Z,1021.58
2018-02-13T00:11:41.804Z,1021.6
2018-02-13T00:12:41.856Z,1021.58
2018-02-13T00:13:41.804Z,1021.59
2018-02-13T00:14:41.796Z,1021.61
2018-02-13T00:15:41.849Z,1021.58
2018-02-13T00:16:41.802Z,1021.57
2018-02-13T00:17:41.808Z,1021.57
2018-02-13T00:18:41.674Z,1021.61
2018-02-13T00:19:41.939Z,1021.58
2018-02-13T00:20:41.949Z,1021.61
2018-02-13T00:21:41.806Z,1021.57
2018-02-13T00:22:41.872Z,1021.61
2018-02-13T00:23:41.808Z,1021.58
2018-02-13T00:24:41.816Z,1021.6
2018-02-13T00:25:41.821Z,1021.65
2018-02-13T00:26:41.836Z,1021.59
2018-02-13T00:27:41.809Z,1021.59
2018-02-13T00:28:41.803Z,1021.62
2018-02-13T00:29:41.929Z,1021.62
2018-02-13T00:30:41.804Z,1021.59
2018-02-13T00:31:41.797Z,1021.6
2018-02-13T00:32:41.801Z,1021.58
2018-02-13T00:33:41.860Z,1021.6
2018-02-13T00:34:41.835Z,1021.6
2018-02-13T00:35:41.817Z,1021.6
2018-02-13T00:36:41.796Z,1021.57
2018-02-13T00:37:41.793Z,1021.57
2018-02-13T00:38:41.854Z,1021.55
2018-02-13T00:39:41.822Z,1021.58
2018-02-13T00:40:41.804Z,1021.61
2018-02-13T00:41:41.793Z,1021.6
2018-02-13T00:42:41.846Z,1021.56
2018-02-13T00:43:41.825Z,1021.58
2018-02-13T00:44:42.108Z,1021.56
2018-02-13T00:45:41.826Z,1021.57
2018-02-13T00:46:41.865Z,1021.55
2018-02-13T00:47:41.788Z,1021.58
2018-02-13T00:48:41.848Z,1021.57
2018-02-13T00:49:41.890Z,1021.56
2018-02-13T00:50:41.870Z,1021.5
2018-02-13T00:51:41.838Z,1021.56
2018-02-13T00:52:41.853Z,1021.54
2018-02-13T00:53:41.850Z,1021.52
2018-02-13T00:54:41.857Z,1021.51
2018-02-13T00:55:41.835Z,1021.48
2018-02-13T00:56:41.814Z,1021.54
2018-02-13T00:57:41.778Z,1021.52
2018-02-13T00:58:41.844Z,1021.47
2018-02-13T00:59:41.870Z,1021.51
2018-02-13T01:00:41.869Z,1021.49
2018-02-13T01:01:41.846Z,1021.47
2018-02-13T01:02:41.859Z,1021.5
2018-02-13T01:03:41.860Z,1021.48
2018-02-13T01:04:41.864Z,1021.52
2018-02-13T01:05:41.896Z,1021.53
2018-02-13T01:06:41.851Z,1021.54
2018-02-13T01:07:41.842Z,1021.56
2018-02-13T01:08:41.848Z,1021.54
2018-02-13T01:09:41.828Z,1021.52
2018-02-13T01:10:41.813Z,1021.51
2018-02-13T01:11:43.374Z,1021.51
2018-02-13T01:12:41.792Z,1021.49
2018-02-13T01:13:41.805Z,1021.51
2018-02-13T01:14:41.815Z,1021.5
2018-02-13T01:15:41.847Z,1021.51
2018-02-13T01:16:41.806Z,1021.5
2018-02-13T01:17:41.800Z,1021.55
2018-02-13T01:18:41.795Z,1021.51
2018-02-13T01:19:41.807Z,1021.51
2018-02-13T01:20:41.785Z,1021.54
2018-02-13T01:21:41.832Z,1021.5
2018-02-13T01:22:41.793Z,1021.5
2018-02-13T01:23:41.853Z,1021.5
2018-02-13T01:24:41.827Z,1021.47
2018-02-13T01:25:41.769Z,1021.47
2018-02-13T01:26:41.785Z,1021.48
2018-02-13T01:27:41.769Z,1021.46
2018-02-13T01:28:41.815Z,1021.46
2018-02-13T01:29:41.775Z,1021.4
2018-02-13T01:30:41.778Z,1021.41
2018-02-13T01:31:41.809Z,1021.44
2018-02-13T01:32:41.771Z,1021.39
2018-02-13T01:33:41.834Z,1021.41
2018-02-13T01:34:41.839Z,1021.41
2018-02-13T01:35:41.836Z,1021.4
2018-02-13T01:36:41.865Z,1021.4
2018-02-13T01:37:41.839Z,1021.36
2018-02-13T01:38:41.859Z,1021.37
2018-02-13T01:40:44.773Z,1021.35
2018-02-13T01:41:41.814Z,1021.39
2018-02-13T01:42:41.841Z,1021.38
2018-02-13T01:43:41.882Z,1021.37
2018-02-13T01:44:41.957Z,1021.39
2018-02-13T01:45:41.838Z,1021.36
2018-02-13T01:46:41.834Z,1021.36
2018-02-13T01:47:41.874Z,1021.41
2018-02-13T01:48:41.848Z,1021.4
2018-02-13T01:49:41.901Z,1021.36
2018-02-13T01:50:41.816Z,1021.41
2018-02-13T01:51:41.795Z,1021.38
2018-02-13T01:52:41.817Z,1021.41
2018-02-13T01:53:41.821Z,1021.42
2018-02-13T01:54:41.873Z,1021.4
2018-02-13T01:55:41.848Z,1021.43
2018-02-13T01:56:41.830Z,1021.4
2018-02-13T01:57:41.801Z,1021.39
2018-02-13T01:58:41.839Z,1021.4
2018-02-13T02:03:35.930Z,1021.43
2018-02-13T02:04:35.489Z,1021.46
2018-02-13T02:05:35.493Z,1021.46
2018-02-13T02:06:35.467Z,1021.45
2018-02-13T02:07:35.477Z,1021.47
2018-02-13T02:08:35.449Z,1021.4
2018-02-13T02:09:35.465Z,1021.43
2018-02-13T02:10:35.474Z,1021.43
2018-02-13T02:11:35.496Z,1021.45
2018-02-13T02:12:35.464Z,1021.43
2018-02-13T02:13:35.460Z,1021.4
2018-02-13T02:14:35.444Z,1021.39
2018-02-13T02:15:35.468Z,1021.4
2018-02-13T02:16:35.451Z,1021.45
2018-02-13T02:17:35.463Z,1021.42
2018-02-13T02:18:35.473Z,1021.37
2018-02-13T02:19:35.457Z,1021.41
2018-02-13T02:20:35.475Z,1021.43
2018-02-13T02:21:35.458Z,1021.4
2018-02-13T02:22:35.463Z,1021.45
2018-02-13T02:23:35.451Z,1021.41
2018-02-13T02:24:35.519Z,1021.43
2018-02-13T02:25:35.492Z,1021.39
2018-02-13T02:26:35.444Z,1021.42
2018-02-13T02:27:35.467Z,1021.38
2018-02-13T02:28:35.462Z,1021.37
2018-02-13T02:29:35.461Z,1021.36
2018-02-13T02:30:35.478Z,1021.37
2018-02-13T02:31:35.456Z,1021.36
2018-02-13T02:32:35.443Z,1021.36
2018-02-13T02:33:35.478Z,1021.32
2018-02-13T02:34:35.462Z,1021.3
2018-02-13T02:35:35.478Z,1021.26
2018-02-13T02:36:35.452Z,1021.28
2018-02-13T02:37:35.463Z,1021.29
2018-02-13T02:38:35.497Z,1021.28
2018-02-13T02:39:35.432Z,1021.26
2018-02-13T02:40:35.480Z,1021.28
2018-02-13T02:41:35.434Z,1021.25
2018-02-13T02:42:35.449Z,1021.21
2018-02-13T02:43:35.467Z,1021.25
2018-02-13T02:44:35.451Z,1021.23
2018-02-13T02:45:35.470Z,1021.23
2018-02-13T02:46:35.472Z,1021.2
2018-02-13T02:47:35.466Z,1021.23
2018-02-13T02:48:35.446Z,1021.2
2018-02-13T02:49:35.449Z,1021.21
2018-02-13T02:50:35.461Z,1021.18
2018-02-13T02:51:35.681Z,1021.16
2018-02-13T02:52:35.769Z,1021.16
2018-02-13T02:53:35.664Z,1021.16
2018-02-13T02:54:35.683Z,1021.2
2018-02-13T02:55:35.679Z,1021.18
2018-02-13T02:56:35.656Z,1021.16
2018-02-13T02:57:35.675Z,1021.17
2018-02-13T02:58:35.662Z,1021.13
2018-02-13T02:59:35.656Z,1021.15
2018-02-13T03:00:35.688Z,1021.13
2018-02-13T03:01:35.663Z,1021.13
2018-02-13T03:02:35.664Z,1021.08
2018-02-13T03:03:35.648Z,1021.14
2018-02-13T03:04:35.653Z,1021.13
2018-02-13T03:05:35.646Z,1021.14
2018-02-13T03:06:35.656Z,1021.14
2018-02-13T03:07:35.655Z,1021.14
2018-02-13T03:13:22.292Z,1021.1
2018-02-13T03:14:21.859Z,1021.09
2018-02-13T03:15:21.856Z,1021.08
2018-02-13T03:16:21.852Z,1021.09
2018-02-13T03:18:22.400Z,1021.09
2018-02-13T03:19:21.866Z,1021.07
2018-02-13T03:20:21.876Z,1021.07
2018-02-13T03:21:21.857Z,1021
2018-02-13T03:22:21.916Z,1021
2018-02-13T03:23:21.871Z,1021.02
2018-02-13T03:24:21.857Z,1021.01
2018-02-13T03:25:21.896Z,1021
2018-02-13T03:26:21.869Z,1021.02
2018-02-13T03:27:21.905Z,1020.98
2018-02-13T03:28:21.846Z,1020.95
2018-02-13T03:29:21.875Z,1020.98
2018-02-13T03:30:21.901Z,1020.93
2018-02-13T03:31:21.899Z,1020.94
2018-02-13T03:32:21.894Z,1020.89
2018-02-13T03:33:21.857Z,1020.9
2018-02-13T03:34:21.922Z,1020.88
2018-02-13T03:35:21.910Z,1020.86
2018-02-13T03:36:21.855Z,1020.88
2018-02-13T03:37:21.882Z,1020.87
2018-02-13T03:38:21.916Z,1020.86
2018-02-13T03:39:21.892Z,1020.81
2018-02-13T03:40:21.876Z,1020.84
2018-02-13T03:41:21.835Z,1020.87
2018-02-13T03:42:21.862Z,1020.84
2018-02-13T03:43:21.898Z,1020.79
2018-02-13T03:44:21.837Z,1020.8
2018-02-13T03:45:21.844Z,1020.82
2018-02-13T03:46:21.874Z,1020.79
2018-02-13T03:47:21.838Z,1020.81
2018-02-13T03:48:21.849Z,1020.81
2018-02-13T03:49:21.854Z,1020.78
2018-02-13T03:50:21.830Z,1020.8
2018-02-13T03:51:21.865Z,1020.81
2018-02-13T03:52:21.855Z,1020.78
2018-02-13T03:53:21.854Z,1020.81
2018-02-13T03:54:21.857Z,1020.77
2018-02-13T03:55:21.840Z,1020.82
2018-02-13T03:56:21.818Z,1020.77
2018-02-13T03:57:21.850Z,1020.78
2018-02-13T03:58:21.824Z,1020.8
2018-02-13T03:59:21.842Z,1020.79
2018-02-13T04:00:21.869Z,1020.79
2018-02-13T04:01:21.859Z,1020.82
2018-02-13T04:02:21.847Z,1020.78
2018-02-13T04:03:21.848Z,1020.84
2018-02-13T04:04:21.888Z,1020.82
2018-02-13T04:05:21.824Z,1020.81
2018-02-13T04:06:21.840Z,1020.8
2018-02-13T04:07:21.828Z,1020.78
2018-02-13T04:08:21.841Z,1020.75
2018-02-13T04:09:21.889Z,1020.79
2018-02-13T04:10:21.869Z,1020.78
2018-02-13T04:11:21.812Z,1020.77
2018-02-13T04:12:21.835Z,1020.75
2018-02-13T04:13:21.854Z,1020.75
2018-02-13T04:14:21.839Z,1020.78
2018-02-13T04:15:21.830Z,1020.79
2018-02-13T04:16:21.859Z,1020.78
2018-02-13T04:17:21.839Z,1020.74
2018-02-13T04:18:21.853Z,1020.73
2018-02-13T04:19:21.890Z,1020.7
2018-02-13T04:20:21.833Z,1020.7
2018-02-13T04:21:21.819Z,1020.67
2018-02-13T04:22:21.823Z,1020.69
2018-02-13T04:23:21.843Z,1020.69
2018-02-13T04:24:21.825Z,1020.71
2018-02-13T04:25:21.830Z,1020.69
2018-02-13T04:26:21.836Z,1020.66
2018-02-13T04:27:21.816Z,1020.69
2018-02-13T04:28:21.817Z,1020.66
2018-02-13T04:29:21.911Z,1020.67
2018-02-13T04:30:21.822Z,1020.61
2018-02-13T04:31:21.837Z,1020.65
2018-02-13T04:32:21.830Z,1020.63
2018-02-13T04:33:21.810Z,1020.59
2018-02-13T04:34:21.822Z,1020.62
2018-02-13T04:35:21.837Z,1020.62
2018-02-13T04:36:21.857Z,1020.63
2018-02-13T04:37:21.831Z,1020.59
2018-02-13T04:38:21.825Z,1020.59
2018-02-13T04:39:21.856Z,1020.62
2018-02-13T04:40:21.811Z,1020.57
2018-02-13T04:41:21.875Z,1020.59
2018-02-13T04:42:21.834Z,1020.61
2018-02-13T04:43:21.824Z,1020.57
2018-02-13T04:44:21.811Z,1020.59
2018-02-13T04:45:21.812Z,1020.59
2018-02-13T04:46:21.840Z,1020.61
2018-02-13T04:47:21.832Z,1020.61
2018-02-13T04:48:21.822Z,1020.62
2018-02-13T04:49:21.799Z,1020.57
2018-02-13T04:50:21.819Z,1020.62
2018-02-13T04:51:21.831Z,1020.57
2018-02-13T04:52:21.806Z,1020.58
2018-02-13T04:53:21.848Z,1020.58
2018-02-13T04:54:21.868Z,1020.56
2018-02-13T04:55:21.908Z,1020.57
2018-02-13T04:56:21.819Z,1020.58
2018-02-13T04:57:21.812Z,1020.52
2018-02-13T04:58:21.813Z,1020.57
2018-02-13T04:59:21.829Z,1020.57
2018-02-13T05:00:21.801Z,1020.56
2018-02-13T05:01:21.850Z,1020.54
2018-02-13T05:02:21.833Z,1020.61
2018-02-13T05:03:21.838Z,1020.6
2018-02-13T05:04:21.825Z,1020.54
2018-02-13T05:05:21.847Z,1020.52
2018-02-13T05:06:21.824Z,1020.51
2018-02-13T05:07:21.801Z,1020.47
2018-02-13T05:08:21.838Z,1020.45
2018-02-13T05:09:21.802Z,1020.43
2018-02-13T05:10:21.836Z,1020.46
2018-02-13T05:11:21.824Z,1020.42
2018-02-13T05:12:21.826Z,1020.42
2018-02-13T05:13:21.859Z,1020.44
2018-02-13T05:14:21.799Z,1020.4
2018-02-13T05:15:21.853Z,1020.42
2018-02-13T05:16:21.814Z,1020.43
2018-02-13T05:17:21.823Z,1020.4
2018-02-13T05:18:21.805Z,1020.42
2018-02-13T05:19:21.862Z,1020.44
2018-02-13T05:20:21.817Z,1020.44
2018-02-13T05:21:21.815Z,1020.42
2018-02-13T05:22:21.797Z,1020.41
2018-02-13T05:23:21.803Z,1020.4
2018-02-13T05:24:21.842Z,1020.39
2018-02-13T05:25:21.796Z,1020.38
2018-02-13T05:26:21.826Z,1020.39
2018-02-13T05:28:22.437Z,1020.43
2018-02-13T05:29:21.856Z,1020.44
2018-02-13T05:30:21.835Z,1020.41
2018-02-13T05:31:21.860Z,1020.4
2018-02-13T05:32:21.880Z,1020.4
2018-02-13T05:33:21.849Z,1020.39
2018-02-13T05:34:21.907Z,1020.37
2018-02-13T05:35:21.844Z,1020.35
2018-02-13T05:36:21.859Z,1020.35
2018-02-13T05:37:21.870Z,1020.36
2018-02-13T05:38:21.832Z,1020.36
2018-02-13T05:39:21.853Z,1020.36
2018-02-13T05:40:21.836Z,1020.35
2018-02-13T05:41:21.842Z,1020.39
2018-02-13T05:42:21.854Z,1020.34
2018-02-13T05:43:21.858Z,1020.37
2018-02-13T05:44:21.841Z,1020.36
2018-02-13T05:45:21.833Z,1020.35
2018-02-13T05:46:21.844Z,1020.37
2018-02-13T05:47:21.908Z,1020.33
2018-02-13T05:48:21.869Z,1020.3
2018-02-13T05:49:21.842Z,1020.36
2018-02-13T05:50:21.850Z,1020.38
2018-02-13T05:51:21.838Z,1020.37
2018-02-13T05:52:21.852Z,1020.34
2018-02-13T05:53:21.866Z,1020.34
2018-02-13T05:54:21.834Z,1020.34
2018-02-13T05:55:21.825Z,1020.36
2018-02-13T05:56:21.837Z,1020.35
2018-02-13T05:57:21.844Z,1020.32
2018-02-13T05:58:27.990Z,1020.34
2018-02-13T05:59:21.802Z,1020.33
2018-02-13T06:00:21.792Z,1020.29
2018-02-13T06:01:21.792Z,1020.31
2018-02-13T06:02:21.802Z,1020.3
2018-02-13T06:03:21.808Z,1020.25
2018-02-13T06:04:22.132Z,1020.28
2018-02-13T06:05:21.822Z,1020.28
2018-02-13T06:06:21.811Z,1020.26
2018-02-13T06:07:21.831Z,1020.24
2018-02-13T06:08:21.807Z,1020.23
2018-02-13T06:09:21.856Z,1020.25
2018-02-13T06:10:21.799Z,1020.23
2018-02-13T06:11:21.824Z,1020.27
2018-02-13T06:12:21.821Z,1020.23
2018-02-13T06:13:21.806Z,1020.24
2018-02-13T06:14:21.806Z,1020.22
2018-02-13T06:15:21.818Z,1020.2
2018-02-13T06:16:21.834Z,1020.22
2018-02-13T06:17:21.794Z,1020.25
2018-02-13T06:18:21.783Z,1020.24
2018-02-13T06:19:21.830Z,1020.23
2018-02-13T06:20:21.800Z,1020.19
2018-02-13T06:21:21.787Z,1020.23
2018-02-13T06:22:21.816Z,1020.18
2018-02-13T06:23:21.810Z,1020.22
2018-02-13T06:24:21.861Z,1020.21
2018-02-13T06:25:21.795Z,1020.22
2018-02-13T06:26:21.800Z,1020.24
2018-02-13T06:27:21.791Z,1020.25
2018-02-13T06:28:21.791Z,1020.27
2018-02-13T06:29:21.813Z,1020.26
2018-02-13T06:30:21.809Z,1020.23
2018-02-13T06:31:21.798Z,1020.28
2018-02-13T06:32:21.804Z,1020.26
2018-02-13T06:33:21.791Z,1020.26
2018-02-13T06:34:21.856Z,1020.27
2018-02-13T06:35:21.789Z,1020.27
2018-02-13T06:36:21.862Z,1020.25
2018-02-13T06:37:21.799Z,1020.24
2018-02-13T06:38:21.796Z,1020.23
2018-02-13T06:39:21.820Z,1020.25
2018-02-13T06:40:21.797Z,1020.21
2018-02-13T06:41:21.832Z,1020.25
2018-02-13T06:42:21.811Z,1020.24
2018-02-13T06:43:21.825Z,1020.23
2018-02-13T06:44:21.853Z,1020.26
2018-02-13T06:45:21.833Z,1020.23
2018-02-13T06:46:21.853Z,1020.26
2018-02-13T06:47:21.863Z,1020.24
2018-02-13T06:48:21.796Z,1020.24
2018-02-13T06:49:21.795Z,1020.25
2018-02-13T06:50:21.821Z,1020.26
2018-02-13T06:51:21.831Z,1020.22
2018-02-13T06:52:21.802Z,1020.23
2018-02-13T06:53:21.788Z,1020.23
2018-02-13T06:54:21.781Z,1020.23
2018-02-13T06:55:21.897Z,1020.23
2018-02-13T06:56:22.342Z,1020.22
2018-02-13T06:57:21.786Z,1020.23
2018-02-13T06:58:21.790Z,1020.24
2018-02-13T06:59:21.800Z,1020.21
2018-02-13T07:00:21.779Z,1020.23
2018-02-13T07:01:21.811Z,1020.19
2018-02-13T07:02:21.788Z,1020.17
2018-02-13T07:03:21.824Z,1020.16
2018-02-13T07:04:21.771Z,1020.2
2018-02-13T07:05:21.802Z,1020.18
2018-02-13T07:06:21.818Z,1020.18
2018-02-13T07:07:21.790Z,1020.21
2018-02-13T07:08:21.853Z,1020.2
2018-02-13T07:09:21.796Z,1020.23
2018-02-13T07:10:21.779Z,1020.2
2018-02-13T07:11:21.930Z,1020.23
2018-02-13T07:12:21.785Z,1020.2
2018-02-13T07:13:21.793Z,1020.18
2018-02-13T07:14:21.779Z,1020.2
2018-02-13T07:15:21.794Z,1020.17
2018-02-13T07:16:21.811Z,1020.17
2018-02-13T07:17:21.787Z,1020.2
2018-02-13T07:18:21.781Z,1020.17
2018-02-13T07:19:21.821Z,1020.17
2018-02-13T07:20:21.787Z,1020.16
2018-02-13T07:21:21.817Z,1020.19
2018-02-13T07:22:21.839Z,1020.13
2018-02-13T07:23:21.776Z,1020.15
2018-02-13T07:24:21.796Z,1020.13
2018-02-13T07:25:21.806Z,1020.13
2018-02-13T07:26:21.808Z,1020.16
2018-02-13T07:27:21.781Z,1020.11
2018-02-13T07:28:21.785Z,1020.12
2018-02-13T07:29:21.783Z,1020.14
2018-02-13T07:30:21.768Z,1020.14
2018-02-13T07:31:21.866Z,1020.16
2018-02-13T07:32:21.785Z,1020.13
2018-02-13T07:33:21.792Z,1020.16
2018-02-13T07:34:21.780Z,1020.13
2018-02-13T07:35:21.773Z,1020.12
2018-02-13T07:36:21.814Z,1020.12
2018-02-13T07:37:21.760Z,1020.1
2018-02-13T07:38:21.789Z,1020.14
2018-02-13T07:39:21.778Z,1020.11
2018-02-13T07:40:21.777Z,1020.07
2018-02-13T07:41:21.802Z,1020.1
2018-02-13T07:42:21.810Z,1020.06
2018-02-13T07:43:21.822Z,1020.09
2018-02-13T07:44:21.791Z,1020.09
2018-02-13T07:45:21.762Z,1020.06
2018-02-13T07:46:21.814Z,1020.06
2018-02-13T07:47:21.777Z,1020.06
2018-02-13T07:48:21.783Z,1020.05
2018-02-13T07:49:21.782Z,1020.06
2018-02-13T07:50:21.768Z,1020.03
2018-02-13T07:51:21.797Z,1020.07
2018-02-13T07:52:21.788Z,1020.08
2018-02-13T07:53:21.787Z,1020.09
2018-02-13T07:54:21.775Z,1020.08
2018-02-13T07:55:21.764Z,1020.08
2018-02-13T07:56:21.806Z,1020.06
2018-02-13T07:57:21.788Z,1020.04
2018-02-13T07:58:21.793Z,1020.04
2018-02-13T07:59:21.807Z,1020.06
2018-02-13T08:00:21.802Z,1020.08
2018-02-13T08:01:21.769Z,1020.1
2018-02-13T08:02:21.827Z,1020.05
2018-02-13T08:03:21.796Z,1020.03
2018-02-13T08:04:21.781Z,1020.03
2018-02-13T08:05:21.750Z,1020.03
2018-02-13T08:06:21.784Z,1020.06
2018-02-13T08:07:21.819Z,1020.01
2018-02-13T08:08:21.793Z,1020.01
2018-02-13T08:09:21.820Z,1020
2018-02-13T08:10:21.792Z,1019.99
2018-02-13T08:11:21.788Z,1019.95
2018-02-13T08:12:21.804Z,1019.97
2018-02-13T08:13:22.061Z,1019.92
2018-02-13T08:14:21.792Z,1019.94
2018-02-13T08:15:21.796Z,1019.95
2018-02-13T08:16:21.797Z,1019.93
2018-02-13T08:17:21.802Z,1019.91
2018-02-13T08:18:21.928Z,1019.93
2018-02-13T08:19:21.775Z,1019.91
2018-02-13T08:20:21.778Z,1019.9
2018-02-13T08:21:21.789Z,1019.9
2018-02-13T08:22:21.790Z,1019.91
2018-02-13T08:23:21.819Z,1019.9
2018-02-13T08:24:21.815Z,1019.87
2018-02-13T08:25:21.812Z,1019.87
2018-02-13T08:26:21.779Z,1019.88
2018-02-13T08:27:21.784Z,1019.87
2018-02-13T08:28:21.802Z,1019.87
2018-02-13T08:29:21.810Z,1019.85
2018-02-13T08:30:21.785Z,1019.87
2018-02-13T08:31:21.792Z,1019.85
2018-02-13T08:32:21.781Z,1019.84
2018-02-13T08:33:21.798Z,1019.79
2018-02-13T08:34:22.058Z,1019.8
2018-02-13T08:35:21.768Z,1019.8
2018-02-13T08:36:21.783Z,1019.77
2018-02-13T08:37:21.813Z,1019.79
2018-02-13T08:38:21.763Z,1019.74
2018-02-13T08:39:21.804Z,1019.75
2018-02-13T08:40:21.778Z,1019.74
2018-02-13T08:41:21.772Z,1019.71
2018-02-13T08:42:21.751Z,1019.71
2018-02-13T08:43:21.757Z,1019.75
2018-02-13T08:44:21.784Z,1019.76
2018-02-13T08:45:21.818Z,1019.71
2018-02-13T08:46:21.773Z,1019.68
2018-02-13T08:47:21.761Z,1019.7
2018-02-13T08:48:21.760Z,1019.68
2018-02-13T08:49:21.803Z,1019.69
2018-02-13T08:50:21.767Z,1019.65
2018-02-13T08:51:21.782Z,1019.68
2018-02-13T08:52:21.756Z,1019.66
2018-02-13T08:53:21.772Z,1019.66
2018-02-13T08:54:21.812Z,1019.66
2018-02-13T08:55:21.759Z,1019.64
2018-02-13T08:56:21.864Z,1019.62
2018-02-13T08:57:21.758Z,1019.65
2018-02-13T08:58:21.780Z,1019.66
2018-02-13T08:59:21.806Z,1019.58
2018-02-13T09:00:21.779Z,1019.6
2018-02-13T09:01:21.782Z,1019.61
2018-02-13T09:02:21.788Z,1019.6
2018-02-13T09:03:21.848Z,1019.55
2018-02-13T09:04:21.777Z,1019.56
2018-02-13T09:05:21.749Z,1019.52
2018-02-13T09:06:21.779Z,1019.5
2018-02-13T09:07:21.763Z,1019.52
2018-02-13T09:08:21.785Z,1019.52
2018-02-13T09:09:21.852Z,1019.48
2018-02-13T09:10:21.750Z,1019.53
2018-02-13T09:11:21.744Z,1019.46
2018-02-13T09:12:21.756Z,1019.52
2018-02-13T09:13:21.749Z,1019.52
2018-02-13T09:14:21.822Z,1019.5
2018-02-13T09:15:21.769Z,1019.46
2018-02-13T09:16:21.789Z,1019.47
2018-02-13T09:17:21.779Z,1019.47
2018-02-13T09:18:21.781Z,1019.44
2018-02-13T09:19:21.806Z,1019.41
2018-02-13T09:20:21.958Z,1019.41
2018-02-13T09:21:21.774Z,1019.39
2018-02-13T09:22:21.776Z,1019.42
2018-02-13T09:23:21.763Z,1019.4
2018-02-13T09:24:21.805Z,1019.38
2018-02-13T09:25:21.780Z,1019.37
2018-02-13T09:26:21.767Z,1019.33
2018-02-13T09:27:21.761Z,1019.32
2018-02-13T09:28:21.760Z,1019.33
2018-02-13T09:29:21.811Z,1019.32
2018-02-13T09:30:21.781Z,1019.3
2018-02-13T09:31:21.756Z,1019.32
2018-02-13T09:32:21.796Z,1019.28
2018-02-13T09:33:21.767Z,1019.33
2018-02-13T09:34:21.773Z,1019.27
2018-02-13T09:35:21.782Z,1019.28
2018-02-13T09:36:21.781Z,1019.26
2018-02-13T09:37:21.788Z,1019.25
2018-02-13T09:38:21.762Z,1019.3
2018-02-13T09:39:21.790Z,1019.28
2018-02-13T09:40:21.798Z,1019.19
2018-02-13T09:41:21.786Z,1019.27
2018-02-13T09:42:21.758Z,1019.19
2018-02-13T09:43:21.779Z,1019.17
2018-02-13T09:44:21.812Z,1019.18
2018-02-13T09:45:21.778Z,1019.17
2018-02-13T09:46:21.753Z,1019.14
2018-02-13T09:47:21.788Z,1019.14
2018-02-13T09:48:21.776Z,1019.15
2018-02-13T09:49:21.751Z,1019.12
2018-02-13T09:50:21.783Z,1019.09
2018-02-13T09:51:21.792Z,1019.12
2018-02-13T09:52:21.778Z,1019.1
2018-02-13T09:53:21.787Z,1019.06
2018-02-13T09:54:21.831Z,1019.05
2018-02-13T09:55:21.847Z,1019.06
2018-02-13T09:56:22.040Z,1019.04
2018-02-13T09:57:21.778Z,1019.06
2018-02-13T09:58:21.793Z,1019.02
2018-02-13T09:59:21.798Z,1019.01
2018-02-13T10:00:21.774Z,1018.98
2018-02-13T10:01:21.787Z,1018.95
2018-02-13T10:02:21.863Z,1018.96
2018-02-13T10:03:21.777Z,1018.96
2018-02-13T10:04:21.779Z,1018.96
2018-02-13T10:05:21.818Z,1018.91
2018-02-13T10:06:21.777Z,1018.93
2018-02-13T10:07:21.840Z,1018.91
2018-02-13T10:08:21.822Z,1018.87
2018-02-13T10:09:21.816Z,1018.93
2018-02-13T10:10:21.794Z,1018.89
2018-02-13T10:11:21.826Z,1018.9
2018-02-13T10:12:21.829Z,1018.83
2018-02-13T10:13:21.839Z,1018.85
2018-02-13T10:14:21.802Z,1018.86
2018-02-13T10:15:21.795Z,1018.83
2018-02-13T10:16:22.118Z,1018.8
2018-02-13T10:17:21.764Z,1018.81
2018-02-13T10:18:21.832Z,1018.78
2018-02-13T10:19:21.749Z,1018.72
2018-02-13T10:20:21.738Z,1018.73
2018-02-13T10:21:21.788Z,1018.71
2018-02-13T10:22:21.822Z,1018.74
2018-02-13T10:23:21.811Z,1018.72
2018-02-13T10:24:21.834Z,1018.71
2018-02-13T10:25:21.849Z,1018.69
2018-02-13T10:26:21.867Z,1018.66
2018-02-13T10:27:21.807Z,1018.64
2018-02-13T10:28:21.805Z,1018.64
2018-02-13T10:29:21.819Z,1018.6
2018-02-13T10:30:21.834Z,1018.6
2018-02-13T10:31:21.919Z,1018.57
2018-02-13T10:32:21.810Z,1018.57
2018-02-13T10:33:21.795Z,1018.56
2018-02-13T10:34:21.738Z,1018.58
2018-02-13T10:35:21.815Z,1018.58
2018-02-13T10:36:21.774Z,1018.55
2018-02-13T10:37:21.803Z,1018.56
2018-02-13T10:38:21.860Z,1018.54
2018-02-13T10:39:21.762Z,1018.54
2018-02-13T10:40:21.771Z,1018.47
2018-02-13T10:41:21.777Z,1018.49
2018-02-13T10:42:21.848Z,1018.46
2018-02-13T10:43:21.745Z,1018.49
2018-02-13T10:44:21.772Z,1018.45
2018-02-13T10:45:21.848Z,1018.46
2018-02-13T10:46:21.935Z,1018.47
2018-02-13T10:47:21.760Z,1018.42
2018-02-13T10:48:21.772Z,1018.38
2018-02-13T10:49:21.789Z,1018.37
2018-02-13T10:50:21.782Z,1018.34
2018-02-13T10:51:21.753Z,1018.34
2018-02-13T10:52:21.898Z,1018.33
2018-02-13T10:53:21.845Z,1018.29
2018-02-13T10:54:27.900Z,1018.27
2018-02-13T10:55:21.740Z,1018.22
2018-02-13T10:56:21.738Z,1018.22
2018-02-13T10:57:21.824Z,1018.21
2018-02-13T10:58:21.736Z,1018.21
2018-02-13T10:59:21.732Z,1018.19
2018-02-13T11:00:21.737Z,1018.17
2018-02-13T11:01:21.860Z,1018.17
2018-02-13T11:02:21.868Z,1018.16
2018-02-13T11:03:21.769Z,1018.12
2018-02-13T11:04:21.799Z,1018.12
2018-02-13T11:05:21.721Z,1018.12
2018-02-13T11:06:21.806Z,1018.1
2018-02-13T11:07:21.722Z,1018.09
2018-02-13T11:08:21.738Z,1018.08
2018-02-13T11:09:21.741Z,1018.05
2018-02-13T11:10:21.805Z,1018.06
2018-02-13T11:11:21.769Z,1018.03
2018-02-13T11:12:21.751Z,1018.03
2018-02-13T11:13:21.829Z,1017.98
2018-02-13T11:14:21.735Z,1017.95
2018-02-13T11:15:21.794Z,1017.94
2018-02-13T11:16:21.749Z,1017.93
2018-02-13T11:17:21.750Z,1017.92
2018-02-13T11:18:21.793Z,1017.89
2018-02-13T11:19:21.740Z,1017.87
2018-02-13T11:20:21.756Z,1017.83
2018-02-13T11:21:21.773Z,1017.79
2018-02-13T11:22:21.733Z,1017.82
2018-02-13T11:23:21.717Z,1017.77
2018-02-13T11:24:21.732Z,1017.71
2018-02-13T11:25:21.756Z,1017.69
2018-02-13T11:26:21.806Z,1017.72
2018-02-13T11:27:21.726Z,1017.71
2018-02-13T11:28:21.769Z,1017.63
2018-02-13T11:29:21.721Z,1017.63
2018-02-13T11:30:21.756Z,1017.6
2018-02-13T11:31:21.785Z,1017.55
2018-02-13T11:32:21.749Z,1017.49
2018-02-13T11:33:21.724Z,1017.49
2018-02-13T11:34:21.751Z,1017.49
2018-02-13T11:35:21.748Z,1017.4
2018-02-13T11:36:21.716Z,1017.42
2018-02-13T11:37:21.806Z,1017.4
2018-02-13T11:38:21.723Z,1017.38
2018-02-13T11:39:21.757Z,1017.34
2018-02-13T11:40:21.736Z,1017.32
2018-02-13T11:41:21.736Z,1017.26
2018-02-13T11:42:21.739Z,1017.22
2018-02-13T11:43:21.836Z,1017.27
2018-02-13T11:44:21.731Z,1017.2
2018-02-13T11:45:21.751Z,1017.22
2018-02-13T11:46:21.740Z,1017.15
2018-02-13T11:47:21.730Z,1017.14
2018-02-13T11:48:21.720Z,1017.07
2018-02-13T11:49:21.711Z,1017.1
2018-02-13T11:50:21.741Z,1017.1
2018-02-13T11:51:21.717Z,1017.05
2018-02-13T11:52:21.785Z,1017.06
2018-02-13T11:53:21.764Z,1017.04
2018-02-13T11:54:21.762Z,1017.01
2018-02-13T11:55:25.128Z,1016.99
2018-02-13T11:56:21.742Z,1016.98
2018-02-13T11:57:21.773Z,1017
2018-02-13T11:58:21.767Z,1016.98
2018-02-13T11:59:21.756Z,1016.97
2018-02-13T12:00:24.869Z,1016.95
2018-02-13T12:01:21.751Z,1016.94
2018-02-13T12:02:22.728Z,1016.91
2018-02-13T12:03:21.726Z,1016.89
2018-02-13T12:04:21.931Z,1016.9
2018-02-13T12:05:21.730Z,1016.93
2018-02-13T12:06:21.757Z,1016.87
2018-02-13T12:07:21.747Z,1016.9
2018-02-13T12:08:21.764Z,1016.84
2018-02-13T12:09:21.883Z,1016.86
2018-02-13T12:10:21.855Z,1016.84
2018-02-13T12:11:22.727Z,1016.85
2018-02-13T12:12:22.694Z,1016.81
2018-02-13T12:13:21.829Z,1016.81
2018-02-13T12:14:22.713Z,1016.75
2018-02-13T12:15:22.734Z,1016.76
2018-02-13T12:16:22.712Z,1016.77
2018-02-13T12:17:22.708Z,1016.68
2018-02-13T12:18:21.761Z,1016.66
2018-02-13T12:19:22.390Z,1016.61
2018-02-13T12:20:22.728Z,1016.63